Time;durP1;ratioP1;P1;durP2;ratioP2;P2;SDS_P1;SDS_P2;PMS_P1;PMS_P2;Temp;Humidity;BMP_temperature;BMP_pressure;BME280_temperature;BME280_humidity;BME280_pressure;Samples;Min_cycle;Max_cycle;Signal;HPM_P1;HPM_P2
2023/07/07 00:01:11;;;;;;;3.17;1.83;;;12.90;88.40;;;;;;5049148;28;20033;-46
2023/07/07 00:03:38;;;;;;;3.60;1.85;;;13.00;88.40;;;;;;5032844;28;20055;-45
2023/07/07 00:06:04;;;;;;;3.10;2.22;;;12.90;88.40;;;;;;5033508;28;20120;-46
2023/07/07 00:08:31;;;;;;;4.28;1.90;;;12.90;88.40;;;;;;5051603;28;20021;-45
2023/07/07 00:11:00;;;;;;;4.20;1.92;;;12.90;88.40;;;;;;5052808;28;20025;-45
2023/07/07 00:13:27;;;;;;;5.05;2.30;;;12.90;88.50;;;;;;5052427;28;20021;-45
2023/07/07 00:16:02;;;;;;;3.58;2.13;;;12.90;88.50;;;;;;5044622;28;20033;-46
2023/07/07 00:18:29;;;;;;;4.68;2.45;;;12.90;88.50;;;;;;5068057;28;20072;-46
2023/07/07 00:20:59;;;;;;;4.10;2.63;;;12.90;88.50;;;;;;5070955;28;20353;-45
2023/07/07 00:23:29;;;;;;;3.35;2.35;;;12.90;88.50;;;;;;5070744;28;20024;-45
2023/07/07 00:26:09;;;;;;;3.65;2.08;;;12.80;88.50;;;;;;5068957;28;20025;-46
2023/07/07 00:28:36;;;;;;;;;;;12.80;88.40;;;;;;5049140;28;20032;-44
2023/07/07 00:31:01;;;;;;;3.83;2.20;;;12.80;88.50;;;;;;5063078;28;19962;-46
2023/07/07 00:33:29;;;;;;;3.88;2.92;;;12.80;88.50;;;;;;5057458;28;20024;-45
2023/07/07 00:35:56;;;;;;;5.00;2.63;;;12.80;88.60;;;;;;5074922;28;20103;-45
2023/07/07 00:38:24;;;;;;;5.20;2.83;;;12.70;88.60;;;;;;5067537;28;20413;-45
2023/07/07 00:40:52;;;;;;;3.95;2.72;;;12.70;88.60;;;;;;5072662;28;20020;-46
2023/07/07 00:43:19;;;;;;;4.03;2.70;;;12.70;88.50;;;;;;5058738;28;20405;-44
2023/07/07 00:45:47;;;;;;;7.30;3.67;;;12.70;88.50;;;;;;5075133;28;20512;-45
2023/07/07 00:48:19;;;;;;;3.40;2.40;;;12.70;88.40;;;;;;5074071;28;20020;-44
2023/07/07 00:50:55;;;;;;;4.70;3.60;;;12.60;88.60;;;;;;5055723;28;20032;-45
2023/07/07 00:53:21;;;;;;;5.40;2.65;;;12.60;88.60;;;;;;5060387;28;20461;-45
2023/07/07 00:56:01;;;;;;;5.05;3.28;;;12.60;88.70;;;;;;5067753;28;20054;-45
2023/07/07 00:58:31;;;;;;;8.02;3.28;;;12.60;88.60;;;;;;5075207;28;20054;-44
2023/07/07 01:01:03;;;;;;;4.60;3.35;;;12.50;88.70;;;;;;5055633;28;20135;-44
2023/07/07 01:03:37;;;;;;;4.70;3.15;;;12.50;88.70;;;;;;5071933;28;20020;-43
2023/07/07 01:06:06;;;;;;;5.82;3.17;;;12.50;88.70;;;;;;5075641;28;20024;-45
2023/07/07 01:08:37;;;;;;;4.43;3.05;;;12.50;88.80;;;;;;5069160;28;20059;-45
2023/07/07 01:11:03;;;;;;;5.43;3.08;;;12.50;88.90;;;;;;5055585;28;20323;-45
2023/07/07 01:13:30;;;;;;;5.53;3.47;;;12.50;89.00;;;;;;5054421;28;20040;-44
2023/07/07 01:16:21;;;;;;;4.13;3.25;;;12.50;89.00;;;;;;5061705;28;20025;-46
2023/07/07 01:18:53;;;;;;;5.93;3.80;;;12.40;89.20;;;;;;5073828;28;20040;-46
2023/07/07 01:21:37;;;;;;;4.78;3.42;;;12.40;89.20;;;;;;5068466;28;20041;-44
2023/07/07 01:24:36;;;;;;;4.30;3.35;;;12.40;89.30;;;;;;5062516;28;20065;-44
2023/07/07 01:27:27;;;;;;;5.75;3.63;;;12.50;89.40;;;;;;5054880;28;20516;-45
2023/07/07 01:30:32;;;;;;;6.22;3.50;;;12.50;89.40;;;;;;5054860;28;20032;-44
2023/07/07 01:33:04;;;;;;;5.45;3.35;;;12.50;89.50;;;;;;5071773;28;20092;-44
2023/07/07 01:35:33;;;;;;;5.05;3.75;;;12.50;89.50;;;;;;5073929;28;20043;-44
2023/07/07 01:38:01;;;;;;;4.93;4.10;;;12.50;89.50;;;;;;5072892;28;20162;-44
2023/07/07 01:40:52;;;;;;;7.32;3.90;;;12.50;89.60;;;;;;5066725;28;20377;-44
2023/07/07 01:43:36;;;;;;;5.65;3.83;;;12.50;89.70;;;;;;5055224;28;20039;-44
2023/07/07 01:46:16;;;;;;;5.72;4.70;;;12.60;89.90;;;;;;5073320;28;20117;-44
2023/07/07 01:49:00;;;;;;;7.18;4.35;;;12.60;89.90;;;;;;5054595;28;20055;-44
2023/07/07 01:51:35;;;;;;;6.15;4.82;;;12.60;90.00;;;;;;5054425;28;20029;-47
2023/07/07 01:54:06;;;;;;;5.28;3.85;;;12.70;90.00;;;;;;5064909;28;20075;-44
2023/07/07 01:56:32;;;;;;;5.30;4.00;;;12.70;90.10;;;;;;5062122;28;20029;-44
2023/07/07 01:59:01;;;;;;;5.78;4.50;;;12.70;90.20;;;;;;5052740;28;21907;-44
2023/07/07 02:01:28;;;;;;;5.63;4.50;;;12.70;90.20;;;;;;5067165;28;20117;-44
2023/07/07 02:03:55;;;;;;;5.90;4.40;;;12.70;90.20;;;;;;5070896;28;20062;-44
2023/07/07 02:06:21;;;;;;;5.47;4.43;;;12.70;90.30;;;;;;5069812;28;20020;-44
2023/07/07 02:08:46;;;;;;;8.48;5.20;;;12.80;90.30;;;;;;5069482;28;20073;-43
2023/07/07 02:11:13;;;;;;;6.85;5.00;;;12.80;90.40;;;;;;5074036;28;20112;-44
2023/07/07 02:13:39;;;;;;;6.18;4.68;;;12.80;90.40;;;;;;5056438;28;20071;-44
2023/07/07 02:16:07;;;;;;;6.18;4.70;;;12.80;90.40;;;;;;5068722;28;20035;-44
2023/07/07 02:18:37;;;;;;;7.43;5.47;;;12.80;90.40;;;;;;5055343;28;20036;-44
2023/07/07 02:21:05;;;;;;;7.13;5.18;;;12.80;90.50;;;;;;5072721;28;20438;-43
2023/07/07 02:23:33;;;;;;;8.65;5.75;;;12.80;90.60;;;;;;5045477;28;20060;-44
2023/07/07 02:26:00;;;;;;;8.20;5.55;;;12.80;90.50;;;;;;5073935;28;20089;-43
2023/07/07 02:28:25;;;;;;;6.78;5.47;;;12.80;90.50;;;;;;5073510;28;20112;-44
2023/07/07 02:30:54;;;;;;;6.22;5.00;;;12.80;90.60;;;;;;5067413;28;20099;-43
2023/07/07 02:33:30;;;;;;;9.03;6.03;;;12.80;90.50;;;;;;5060583;28;20032;-44
2023/07/07 02:36:02;;;;;;;7.10;5.95;;;12.80;90.60;;;;;;5072725;28;20040;-44
2023/07/07 02:38:29;;;;;;;6.85;5.93;;;12.90;90.60;;;;;;5053706;28;20086;-44
2023/07/07 02:40:59;;;;;;;7.35;6.32;;;12.90;90.60;;;;;;5069428;28;20032;-44
2023/07/07 02:43:26;;;;;;;9.15;5.45;;;12.90;90.70;;;;;;5071166;28;20052;-44
2023/07/07 02:45:57;;;;;;;7.40;5.80;;;12.80;90.70;;;;;;5071658;28;20101;-45
2023/07/07 02:48:24;;;;;;;9.02;6.22;;;12.90;90.70;;;;;;5073538;28;20060;-45
2023/07/07 02:50:55;;;;;;;9.18;6.75;;;12.90;90.80;;;;;;5070200;28;20089;-47
2023/07/07 02:53:28;;;;;;;9.77;7.63;;;12.90;90.80;;;;;;5072196;28;20029;-43
2023/07/07 02:55:58;;;;;;;8.57;6.53;;;12.90;90.80;;;;;;5056064;28;20021;-44
2023/07/07 02:58:32;;;;;;;7.43;6.57;;;12.80;90.90;;;;;;5053185;28;20029;-43
2023/07/07 03:01:10;;;;;;;8.95;6.55;;;12.90;90.90;;;;;;5063528;28;20121;-44
2023/07/07 03:03:41;;;;;;;9.57;7.93;;;12.80;90.80;;;;;;5072493;28;20120;-43
2023/07/07 03:06:11;;;;;;;7.88;7.07;;;12.90;90.90;;;;;;5067286;28;20028;-44
2023/07/07 03:08:38;;;;;;;11.45;8.43;;;12.80;91.00;;;;;;5054103;28;20104;-43
2023/07/07 03:11:14;;;;;;;9.95;8.55;;;12.80;91.00;;;;;;5057107;28;20024;-43
2023/07/07 03:13:45;;;;;;;11.75;9.52;;;12.90;91.10;;;;;;5056490;28;20025;-44
2023/07/07 03:16:14;;;;;;;9.60;8.60;;;12.90;91.10;;;;;;5052175;28;20038;-44
2023/07/07 03:18:41;;;;;;;10.20;9.10;;;12.90;91.10;;;;;;5069368;28;20083;-46
2023/07/07 03:21:08;;;;;;;11.63;10.20;;;12.90;91.10;;;;;;5069598;28;20021;-44
2023/07/07 03:23:35;;;;;;;12.65;9.50;;;12.90;91.10;;;;;;5064892;28;20637;-43
2023/07/07 03:26:13;;;;;;;10.73;9.63;;;12.90;91.30;;;;;;5072408;28;20056;-44
2023/07/07 03:28:40;;;;;;;10.38;8.75;;;12.90;91.30;;;;;;5072934;28;20029;-44
2023/07/07 03:31:25;;;;;;;10.45;9.38;;;12.90;91.30;;;;;;5062423;28;20461;-42
2023/07/07 03:33:53;;;;;;;12.57;11.07;;;12.90;91.30;;;;;;5072016;28;20031;-42
2023/07/07 03:36:26;;;;;;;11.35;9.77;;;12.90;91.30;;;;;;5071540;28;20036;-43
2023/07/07 03:38:53;;;;;;;12.52;9.88;;;12.90;91.20;;;;;;5054087;28;20464;-42
2023/07/07 03:41:22;;;;;;;11.88;10.35;;;12.90;91.20;;;;;;5063843;28;20028;-43
2023/07/07 03:43:48;;;;;;;17.08;9.77;;;12.90;91.20;;;;;;5072076;28;20158;-43
2023/07/07 03:46:19;;;;;;;16.40;11.52;;;12.90;91.10;;;;;;5050183;28;20152;-42
2023/07/07 03:48:48;;;;;;;13.13;11.20;;;12.90;91.20;;;;;;5070311;28;20056;-43
2023/07/07 03:51:22;;;;;;;13.75;11.48;;;12.90;91.20;;;;;;5071622;28;20393;-43
2023/07/07 03:53:51;;;;;;;11.77;10.63;;;13.00;91.30;;;;;;5054345;28;20127;-43
2023/07/07 03:56:19;;;;;;;13.75;11.57;;;13.00;91.30;;;;;;5073587;28;20028;-45
2023/07/07 03:58:47;;;;;;;11.65;10.45;;;13.10;91.30;;;;;;5074955;28;20020;-46
2023/07/07 04:01:17;;;;;;;15.07;11.48;;;13.10;91.30;;;;;;5068768;28;20021;-44
2023/07/07 04:03:46;;;;;;;14.73;12.60;;;13.10;91.40;;;;;;5074608;28;20365;-43
2023/07/07 04:06:17;;;;;;;15.07;11.13;;;13.10;91.30;;;;;;5075023;28;20029;-44
2023/07/07 04:08:44;;;;;;;16.42;12.43;;;13.20;91.40;;;;;;5062163;28;20044;-44
2023/07/07 04:11:21;;;;;;;16.40;14.05;;;13.30;91.40;;;;;;5074708;28;20028;-43
2023/07/07 04:13:50;;;;;;;16.30;13.23;;;13.30;91.40;;;;;;5039193;28;20021;-44
2023/07/07 04:16:25;;;;;;;15.27;12.05;;;13.40;91.50;;;;;;5063334;28;20021;-45
2023/07/07 04:18:54;;;;;;;15.60;13.00;;;13.40;91.40;;;;;;5059202;28;20070;-47
2023/07/07 04:21:24;;;;;;;16.50;12.07;;;13.40;91.30;;;;;;5074303;28;20377;-44
2023/07/07 04:23:52;;;;;;;14.73;12.70;;;13.50;91.30;;;;;;5074259;28;20074;-45
2023/07/07 04:26:21;;;;;;;18.05;12.98;;;13.50;91.10;;;;;;5071008;28;20021;-42
2023/07/07 04:28:51;;;;;;;15.97;13.30;;;13.50;90.90;;;;;;5074816;28;20037;-45
2023/07/07 04:31:17;;;;;;;;;;;13.60;90.90;;;;;;5072329;28;20029;-43
2023/07/07 04:33:43;;;;;;;17.90;13.45;;;13.60;90.70;;;;;;5074960;28;19920;-43
2023/07/07 04:36:12;;;;;;;16.80;13.05;;;13.70;90.60;;;;;;5073555;28;20485;-43
2023/07/07 04:38:42;;;;;;;17.47;14.50;;;13.80;90.60;;;;;;5073363;28;20031;-43
2023/07/07 04:41:22;;;;;;;15.70;12.90;;;13.90;90.40;;;;;;5056568;28;20094;-47
2023/07/07 04:43:51;;;;;;;24.35;14.20;;;13.90;90.20;;;;;;5056334;28;20067;-44
2023/07/07 04:46:28;;;;;;;14.82;13.20;;;14.10;90.10;;;;;;5056087;28;20120;-44
2023/07/07 04:48:55;;;;;;;18.35;12.38;;;14.20;89.60;;;;;;5057445;28;20033;-43
2023/07/07 04:51:25;;;;;;;16.65;14.38;;;14.30;89.20;;;;;;5056430;28;20032;-44
2023/07/07 04:53:52;;;;;;;;;;;14.40;89.00;;;;;;5074293;28;20032;-43
2023/07/07 04:56:22;;;;;;;16.85;12.38;;;14.40;88.70;;;;;;5060414;28;19919;-44
2023/07/07 04:58:51;;;;;;;18.90;13.60;;;14.40;88.40;;;;;;5056126;28;20033;-44
2023/07/07 05:01:24;;;;;;;18.08;12.82;;;14.40;88.30;;;;;;5071521;28;20024;-45
2023/07/07 05:03:57;;;;;;;17.00;13.52;;;14.50;88.30;;;;;;5071255;28;20040;-43
2023/07/07 05:06:28;;;;;;;16.85;12.85;;;14.50;88.20;;;;;;5070963;28;20031;-43
2023/07/07 05:08:55;;;;;;;16.25;13.48;;;14.50;88.10;;;;;;5073234;28;20386;-44
2023/07/07 05:11:24;;;;;;;15.68;11.48;;;14.60;87.90;;;;;;5064732;28;20032;-44
2023/07/07 05:13:53;;;;;;;14.88;12.07;;;14.60;88.00;;;;;;5072005;28;20067;-44
2023/07/07 05:16:24;;;;;;;13.75;12.23;;;14.70;88.00;;;;;;5057385;28;20324;-44
2023/07/07 05:18:52;;;;;;;16.20;12.32;;;14.80;87.90;;;;;;5052357;28;20052;-44
2023/07/07 05:21:22;;;;;;;14.13;11.63;;;14.80;87.90;;;;;;5035013;28;20131;-45
2023/07/07 05:23:51;;;;;;;13.02;9.98;;;14.90;87.90;;;;;;5035240;28;20028;-45
2023/07/07 05:26:23;;;;;;;17.60;11.85;;;14.90;87.80;;;;;;5043530;28;20088;-44
2023/07/07 05:28:51;;;;;;;12.73;11.43;;;14.90;87.60;;;;;;5041691;28;20037;-45
2023/07/07 05:31:18;;;;;;;14.85;10.73;;;15.00;87.70;;;;;;5049912;28;20029;-46
2023/07/07 05:33:44;;;;;;;13.48;12.18;;;15.00;87.70;;;;;;5044089;28;20039;-45
2023/07/07 05:36:13;;;;;;;14.35;11.40;;;15.10;87.50;;;;;;5048710;28;20029;-44
2023/07/07 05:38:41;;;;;;;14.87;11.77;;;15.20;87.40;;;;;;5039865;28;20451;-44
2023/07/07 05:41:11;;;;;;;14.68;12.63;;;15.20;87.30;;;;;;5047819;28;20033;-46
2023/07/07 05:43:38;;;;;;;13.70;11.07;;;15.20;87.20;;;;;;5040249;28;20033;-49
2023/07/07 05:46:08;;;;;;;13.38;11.90;;;15.30;87.20;;;;;;5040210;28;20017;-47
2023/07/07 05:48:34;;;;;;;15.75;11.50;;;15.30;87.00;;;;;;5039053;28;20032;-46
2023/07/07 05:51:07;;;;;;;13.07;9.25;;;15.40;86.90;;;;;;5046530;28;20031;-47
2023/07/07 05:53:34;;;;;;;13.38;9.40;;;15.50;86.90;;;;;;5033715;28;20029;-44
2023/07/07 05:56:18;;;;;;;12.52;9.65;;;15.60;86.70;;;;;;5035495;28;20417;-45
2023/07/07 05:58:52;;;;;;;12.55;8.55;;;15.90;86.00;;;;;;5031328;28;20488;-48
2023/07/07 06:01:25;;;;;;;10.32;7.95;;;16.20;84.90;;;;;;5048198;28;20043;-45
2023/07/07 06:03:50;;;;;;;13.57;8.93;;;16.40;84.70;;;;;;5039030;28;20048;-47
2023/07/07 06:06:17;;;;;;;11.48;9.13;;;16.60;84.10;;;;;;5027093;28;20127;-46
2023/07/07 06:08:45;;;;;;;10.05;8.65;;;16.80;83.30;;;;;;5039889;28;20046;-47
2023/07/07 06:11:12;;;;;;;9.95;7.38;;;16.90;82.70;;;;;;5048282;28;20017;-46
2023/07/07 06:13:39;;;;;;;13.20;9.60;;;17.10;82.70;;;;;;5033468;28;20029;-48
2023/07/07 06:16:06;;;;;;;10.18;8.00;;;17.40;82.80;;;;;;5049198;28;21478;-48
2023/07/07 06:18:34;;;;;;;9.52;7.55;;;17.50;82.40;;;;;;5066769;28;20052;-48
2023/07/07 06:21:03;;;;;;;8.60;6.43;;;17.70;80.50;;;;;;5073122;28;20036;-48
2023/07/07 06:23:30;;;;;;;12.65;7.72;;;17.90;79.10;;;;;;5065343;28;20029;-48
2023/07/07 06:25:59;;;;;;;12.23;7.38;;;17.90;78.20;;;;;;5070020;28;20032;-47
2023/07/07 06:28:25;;;;;;;10.13;6.90;;;17.90;77.40;;;;;;5068699;28;20042;-50
2023/07/07 06:30:53;;;;;;;9.90;6.93;;;18.00;77.50;;;;;;5070038;28;20024;-47
2023/07/07 06:33:21;;;;;;;6.68;5.95;;;18.10;77.50;;;;;;5066440;28;20128;-47
2023/07/07 06:35:48;;;;;;;6.95;6.22;;;18.20;77.60;;;;;;5068546;28;20071;-48
2023/07/07 06:38:15;;;;;;;8.32;6.20;;;18.30;78.30;;;;;;5071645;28;20041;-48
2023/07/07 06:40:42;;;;;;;10.32;7.07;;;18.40;78.50;;;;;;5050350;28;20511;-48
2023/07/07 06:43:09;;;;;;;6.80;5.75;;;18.40;77.50;;;;;;5067574;28;20056;-47
2023/07/07 06:45:37;;;;;;;8.60;5.93;;;18.50;76.50;;;;;;5070561;28;20377;-49
2023/07/07 06:48:05;;;;;;;9.00;6.15;;;18.60;76.50;;;;;;5067342;28;20012;-47
2023/07/07 06:50:34;;;;;;;11.05;6.45;;;18.70;76.20;;;;;;5071720;28;20020;-48
2023/07/07 06:53:01;;;;;;;9.13;7.03;;;18.60;74.70;;;;;;5063897;28;20116;-49
2023/07/07 06:55:28;;;;;;;11.02;6.00;;;18.80;75.70;;;;;;5055528;28;20078;-51
2023/07/07 06:57:55;;;;;;;11.18;6.30;;;18.90;76.20;;;;;;5069004;28;20462;-50
2023/07/07 07:00:22;;;;;;;7.53;5.43;;;19.00;74.80;;;;;;5066555;28;20591;-48
2023/07/07 07:02:48;;;;;;;13.50;5.40;;;19.10;74.70;;;;;;5055101;28;20116;-50
2023/07/07 07:05:17;;;;;;;8.65;6.32;;;19.30;75.50;;;;;;5067076;28;20107;-49
2023/07/07 07:07:44;;;;;;;8.80;6.28;;;19.40;74.60;;;;;;5068023;28;20024;-50
2023/07/07 07:10:12;;;;;;;7.95;5.72;;;19.40;74.30;;;;;;5058225;28;20033;-47
2023/07/07 07:12:37;;;;;;;10.68;6.38;;;19.50;74.00;;;;;;5063382;28;20020;-48
2023/07/07 07:15:04;;;;;;;8.63;6.22;;;19.60;75.50;;;;;;5063327;28;20028;-52
2023/07/07 07:17:31;;;;;;;9.05;5.75;;;19.80;73.70;;;;;;5065122;28;20049;-48
2023/07/07 07:19:58;;;;;;;9.52;4.60;;;19.90;73.30;;;;;;5054039;28;20115;-50
2023/07/07 07:22:25;;;;;;;8.45;5.32;;;20.10;72.90;;;;;;5058781;28;20036;-51
2023/07/07 07:24:52;;;;;;;8.48;5.18;;;20.40;71.70;;;;;;5067227;28;20021;-48
2023/07/07 07:27:19;;;;;;;8.75;5.88;;;20.70;71.10;;;;;;5064839;28;20397;-48
2023/07/07 07:29:45;;;;;;;8.98;4.82;;;20.90;67.70;;;;;;5063609;28;20401;-48
2023/07/07 07:32:12;;;;;;;8.63;5.63;;;21.20;69.10;;;;;;5067479;28;20107;-50
2023/07/07 07:34:39;;;;;;;8.73;5.32;;;21.50;67.40;;;;;;5056900;28;20032;-48
2023/07/07 07:37:06;;;;;;;12.15;4.13;;;21.80;66.50;;;;;;5061721;28;20031;-52
2023/07/07 07:39:34;;;;;;;9.10;4.85;;;21.80;65.80;;;;;;5067528;28;20503;-50
2023/07/07 07:42:02;;;;;;;6.82;3.50;;;22.20;65.60;;;;;;5066028;28;20043;-52
2023/07/07 07:44:29;;;;;;;10.93;4.03;;;22.50;63.80;;;;;;5068536;28;20097;-50
2023/07/07 07:46:57;;;;;;;7.32;3.92;;;22.70;62.00;;;;;;5065882;28;20036;-50
2023/07/07 07:49:26;;;;;;;6.25;3.47;;;22.90;62.10;;;;;;5064681;28;20481;-50
2023/07/07 07:51:54;;;;;;;6.05;3.65;;;23.10;61.50;;;;;;5066374;28;20434;-49
2023/07/07 07:54:23;;;;;;;8.75;4.18;;;23.60;62.00;;;;;;5063802;28;20036;-50
2023/07/07 07:56:50;;;;;;;;;;;23.90;58.40;;;;;;5068704;28;20478;-49
2023/07/07 07:59:19;;;;;;;7.47;3.40;;;24.20;59.50;;;;;;5065443;28;19909;-49
2023/07/07 08:01:49;;;;;;;5.72;3.53;;;24.60;58.50;;;;;;5065348;28;20036;-52
2023/07/07 08:04:15;;;;;;;6.82;3.83;;;24.90;58.40;;;;;;5065929;28;20021;-50
2023/07/07 08:06:42;;;;;;;6.45;3.08;;;24.90;57.30;;;;;;5063187;28;20116;-52
2023/07/07 08:09:11;;;;;;;6.35;3.65;;;25.00;56.70;;;;;;5049979;28;20327;-52
2023/07/07 08:11:48;;;;;;;4.22;2.65;;;25.30;55.30;;;;;;5067370;28;20028;-52
2023/07/07 08:14:20;;;;;;;6.20;3.25;;;25.30;54.90;;;;;;5066480;28;20033;-49
2023/07/07 08:16:52;;;;;;;9.32;3.40;;;25.30;52.20;;;;;;5063328;28;20050;-50
2023/07/07 08:19:19;;;;;;;5.97;2.65;;;25.50;53.60;;;;;;5066022;28;20028;-50
2023/07/07 08:21:47;;;;;;;5.57;2.92;;;25.80;52.90;;;;;;5067804;28;20477;-49
2023/07/07 08:24:12;;;;;;;5.85;2.97;;;25.90;53.20;;;;;;5063007;28;20021;-50
2023/07/07 08:26:40;;;;;;;6.32;3.28;;;25.80;53.20;;;;;;5065538;28;20487;-49
2023/07/07 08:29:09;;;;;;;7.50;3.08;;;25.70;53.00;;;;;;5074963;28;20021;-55
2023/07/07 08:31:36;;;;;;;5.90;2.70;;;25.90;51.50;;;;;;5069952;28;20466;-50
2023/07/07 08:34:03;;;;;;;3.72;2.30;;;26.30;53.60;;;;;;5049168;28;20047;-49
2023/07/07 08:36:30;;;;;;;8.65;3.97;;;26.60;52.00;;;;;;5062654;28;20037;-51
2023/07/07 08:39:19;;;;;;;6.28;3.22;;;26.60;47.90;;;;;;5065086;28;20492;-49
2023/07/07 08:42:19;;;;;;;10.25;3.28;;;26.70;49.10;;;;;;5054246;28;20055;-49
2023/07/07 08:44:46;;;;;;;6.68;2.70;;;26.40;49.30;;;;;;5065207;28;20062;-49
2023/07/07 08:47:37;;;;;;;6.57;3.55;;;26.30;49.20;;;;;;5077043;28;20039;-49
2023/07/07 08:50:11;;;;;;;4.63;2.70;;;26.40;50.30;;;;;;5069853;28;20350;-49
2023/07/07 08:52:47;;;;;;;6.38;3.08;;;26.60;49.10;;;;;;5077577;28;20039;-49
2023/07/07 08:55:30;;;;;;;4.82;2.95;;;26.70;48.10;;;;;;5052788;28;20028;-52
2023/07/07 08:58:18;;;;;;;8.30;2.90;;;26.80;48.10;;;;;;5045464;28;20122;-51
2023/07/07 09:01:30;;;;;;;3.88;2.33;;;26.90;50.20;;;;;;5066996;28;20024;-54
2023/07/07 09:04:08;;;;;;;4.82;2.58;;;27.30;49.50;;;;;;5064696;28;20099;-51
2023/07/07 09:06:57;;;;;;;4.50;2.97;;;27.40;47.70;;;;;;5050459;28;20445;-53
2023/07/07 09:09:25;;;;;;;4.63;2.63;;;27.40;47.10;;;;;;5071064;28;20024;-51
2023/07/07 09:12:09;;;;;;;5.20;2.83;;;27.60;47.20;;;;;;5070965;28;20033;-50
2023/07/07 09:14:38;;;;;;;6.50;3.00;;;27.60;44.60;;;;;;5067480;28;20048;-54
2023/07/07 09:17:19;;;;;;;8.43;2.55;;;27.80;46.30;;;;;;5073359;28;20136;-56
2023/07/07 09:19:50;;;;;;;4.97;2.47;;;27.20;43.50;;;;;;5066366;28;20047;-55
2023/07/07 09:22:53;;;;;;;4.63;3.05;;;27.20;42.90;;;;;;5065144;28;20040;-55
2023/07/07 09:25:43;;;;;;;4.75;2.83;;;27.00;42.90;;;;;;4988076;28;20049;-51
2023/07/07 09:28:14;;;;;;;5.50;2.40;;;27.10;46.50;;;;;;4986843;28;20035;-49
2023/07/07 09:31:04;;;;;;;6.68;3.38;;;27.50;44.10;;;;;;4985361;28;20105;-56
2023/07/07 09:33:34;;;;;;;5.15;2.60;;;27.70;46.40;;;;;;4989516;28;20533;-52
2023/07/07 09:36:30;;;;;;;4.82;2.67;;;27.60;43.50;;;;;;4985733;28;20050;-52
2023/07/07 09:39:17;;;;;;;4.82;2.60;;;27.50;45.40;;;;;;4990015;28;20435;-51
2023/07/07 09:42:03;;;;;;;4.78;2.53;;;27.80;46.60;;;;;;4987647;28;20576;-50
2023/07/07 09:44:49;;;;;;;4.80;2.40;;;27.70;42.60;;;;;;4983736;28;20053;-52
2023/07/07 09:47:31;;;;;;;3.80;2.15;;;27.70;45.00;;;;;;4984593;28;20034;-50
2023/07/07 09:50:18;;;;;;;5.28;2.90;;;27.40;42.60;;;;;;4990302;28;20034;-50
2023/07/07 09:53:21;;;;;;;4.63;2.45;;;27.20;43.70;;;;;;4988693;28;20495;-51
2023/07/07 09:55:48;;;;;;;4.63;2.72;;;27.40;42.60;;;;;;4985627;28;20367;-52
2023/07/07 09:58:44;;;;;;;4.07;2.20;;;27.70;43.40;;;;;;4984733;28;20075;-56
2023/07/07 10:01:11;;;;;;;4.70;2.42;;;27.90;43.00;;;;;;5038696;28;20040;-51
2023/07/07 10:03:48;;;;;;;4.30;2.00;;;28.10;45.50;;;;;;5067143;28;20037;-53
2023/07/07 10:06:49;;;;;;;4.93;2.35;;;28.50;47.30;;;;;;5049921;28;20055;-52
2023/07/07 10:09:19;;;;;;;4.85;2.70;;;28.80;44.00;;;;;;5067978;28;20043;-54
2023/07/07 10:11:46;;;;;;;;;;;28.30;43.00;;;;;;5063824;28;20067;-54
2023/07/07 10:14:18;;;;;;;3.95;2.20;;;27.90;41.70;;;;;;5054591;28;19951;-52
2023/07/07 10:17:08;;;;;;;4.97;2.53;;;28.10;45.60;;;;;;5067933;28;20063;-54
2023/07/07 10:19:55;;;;;;;4.13;2.35;;;28.50;45.00;;;;;;5061035;28;20056;-58
2023/07/07 10:22:22;;;;;;;4.85;2.55;;;28.90;44.40;;;;;;5061217;28;20079;-55
2023/07/07 10:24:49;;;;;;;7.43;2.90;;;28.90;43.40;;;;;;5065046;28;20020;-55
2023/07/07 10:27:20;;;;;;;4.63;2.75;;;29.20;42.60;;;;;;5071783;28;20085;-55
2023/07/07 10:29:47;;;;;;;4.10;2.45;;;29.00;42.40;;;;;;5070893;28;20051;-54
2023/07/07 10:32:22;;;;;;;4.38;2.35;;;29.20;42.90;;;;;;5067969;28;20736;-52
2023/07/07 10:34:57;;;;;;;4.53;2.30;;;29.00;41.50;;;;;;5068186;28;20107;-53
2023/07/07 10:37:31;;;;;;;4.43;2.25;;;28.60;41.80;;;;;;5066685;28;20106;-54
2023/07/07 10:40:00;;;;;;;4.68;2.40;;;28.70;44.10;;;;;;5052628;28;20029;-51
2023/07/07 10:42:29;;;;;;;4.80;2.47;;;28.60;41.20;;;;;;5067894;28;20354;-56
2023/07/07 10:44:58;;;;;;;4.63;2.28;;;28.60;45.20;;;;;;5065041;28;20070;-51
2023/07/07 10:47:31;;;;;;;;;;;28.90;45.60;;;;;;5066269;28;20033;-51
2023/07/07 10:49:59;;;;;;;3.60;2.13;;;28.90;44.40;;;;;;5064546;28;19916;-54
2023/07/07 10:53:05;;;;;;;4.28;2.35;;;28.40;41.60;;;;;;5058840;28;20429;-55
2023/07/07 10:55:52;;;;;;;3.85;2.03;;;28.80;44.10;;;;;;5019879;28;20037;-55
2023/07/07 10:58:23;;;;;;;3.75;2.20;;;28.60;41.80;;;;;;5051565;28;20044;-53
2023/07/07 11:01:26;;;;;;;5.35;2.45;;;28.50;41.80;;;;;;5067152;28;20353;-56
2023/07/07 11:04:31;;;;;;;3.75;2.10;;;28.30;43.00;;;;;;5051491;28;20366;-54
2023/07/07 11:07:23;;;;;;;4.22;2.35;;;27.70;42.80;;;;;;5064522;28;20362;-51
2023/07/07 11:10:10;;;;;;;3.75;2.70;;;27.40;44.30;;;;;;5049761;28;20171;-55
2023/07/07 11:13:05;;;;;;;4.10;2.20;;;27.40;42.30;;;;;;5065452;28;20329;-53
2023/07/07 11:15:59;;;;;;;4.07;1.98;;;27.70;44.20;;;;;;5061733;28;20025;-53
2023/07/07 11:18:36;;;;;;;5.40;2.67;;;27.90;43.50;;;;;;5067695;28;20064;-54
2023/07/07 11:21:24;;;;;;;4.15;2.70;;;28.40;46.70;;;;;;5066439;28;20347;-56
2023/07/07 11:24:28;;;;;;;4.60;2.58;;;28.60;41.80;;;;;;5065028;28;20454;-57
2023/07/07 11:27:12;;;;;;;5.20;2.40;;;28.60;46.10;;;;;;5059316;28;20029;-51
2023/07/07 11:29:59;;;;;;;4.43;2.60;;;28.40;45.20;;;;;;5067841;28;20016;-55
2023/07/07 11:32:39;;;;;;;5.68;2.55;;;28.40;41.40;;;;;;5064611;28;20044;-54
2023/07/07 11:35:17;;;;;;;5.05;2.40;;;28.30;43.20;;;;;;5065903;28;20032;-52
2023/07/07 11:37:57;;;;;;;4.45;2.97;;;28.40;42.90;;;;;;5063559;28;20021;-54
2023/07/07 11:41:00;;;;;;;6.07;2.72;;;28.40;44.30;;;;;;5054426;28;20032;-53
2023/07/07 11:43:28;;;;;;;5.35;2.80;;;28.40;43.30;;;;;;5069745;28;20024;-52
2023/07/07 11:46:33;;;;;;;9.00;3.83;;;28.40;47.00;;;;;;5065471;28;20135;-53
2023/07/07 11:49:36;;;;;;;6.28;3.00;;;28.10;46.90;;;;;;5066250;28;20028;-56
2023/07/07 11:52:25;;;;;;;7.03;3.42;;;28.50;51.60;;;;;;5058070;28;20442;-55
2023/07/07 11:55:28;;;;;;;6.75;3.55;;;28.40;51.40;;;;;;5063614;28;20454;-50
2023/07/07 11:58:12;;;;;;;5.25;3.60;;;28.30;45.80;;;;;;5059223;28;20051;-56
2023/07/07 12:01:01;;;;;;;4.90;3.10;;;27.90;47.50;;;;;;5065547;28;20465;-52
2023/07/07 12:03:39;;;;;;;5.78;2.67;;;27.60;51.40;;;;;;5069740;28;20029;-56
2023/07/07 12:06:32;;;;;;;4.93;2.67;;;27.60;50.80;;;;;;5067384;28;20048;-52
2023/07/07 12:09:43;;;;;;;4.68;2.50;;;27.60;51.00;;;;;;5035606;28;20041;-53
2023/07/07 12:12:38;;;;;;;4.35;2.30;;;27.50;49.00;;;;;;4983239;28;20027;-51
2023/07/07 12:15:19;;;;;;;5.95;2.67;;;27.30;50.10;;;;;;4985069;28;20027;-52
2023/07/07 12:17:52;;;;;;;5.30;3.03;;;27.20;49.80;;;;;;4966498;28;20150;-55
2023/07/07 12:20:35;;;;;;;6.38;3.35;;;26.90;50.20;;;;;;4962244;28;20046;-56
2023/07/07 12:23:04;;;;;;;10.07;3.80;;;26.60;52.70;;;;;;4971807;28;20035;-56
2023/07/07 12:25:32;;;;;;;;;;;26.50;52.40;;;;;;4968536;28;20027;-51
2023/07/07 12:28:04;;;;;;;7.57;2.97;;;26.40;50.10;;;;;;4968164;28;19957;-53
2023/07/07 12:30:36;;;;;;;6.00;3.17;;;26.10;51.80;;;;;;4967708;28;20085;-53
2023/07/07 12:33:05;;;;;;;5.45;2.85;;;26.10;52.40;;;;;;4944125;28;20069;-51
2023/07/07 12:35:51;;;;;;;;;;;26.10;50.90;;;;;;4969271;28;20481;-54
2023/07/07 12:38:36;;;;;;;7.43;3.10;;;26.10;50.90;;;;;;4956446;28;19918;-57
2023/07/07 12:41:18;;;;;;;9.40;4.88;;;26.00;52.40;;;;;;4963728;28;20272;-53
2023/07/07 12:43:51;;;;;;;5.32;2.80;;;25.90;53.50;;;;;;4968150;28;20093;-52
2023/07/07 12:46:36;;;;;;;7.65;2.60;;;25.80;55.40;;;;;;5006522;28;20041;-53
2023/07/07 12:49:28;;;;;;;8.75;3.13;;;26.00;52.70;;;;;;5046827;28;20044;-54
2023/07/07 12:52:00;;;;;;;8.07;2.75;;;25.80;52.20;;;;;;5042630;28;20049;-52
2023/07/07 12:54:35;;;;;;;4.40;2.60;;;25.60;53.10;;;;;;5048161;28;20025;-52
2023/07/07 12:57:23;;;;;;;6.97;3.50;;;25.40;56.90;;;;;;5046284;28;20112;-56
2023/07/07 12:59:51;;;;;;;8.07;4.68;;;25.40;55.20;;;;;;5045489;28;20029;-54
2023/07/07 13:02:54;;;;;;;9.43;4.93;;;25.40;54.40;;;;;;5049855;28;20068;-52
2023/07/07 13:05:22;;;;;;;6.50;3.70;;;25.20;57.80;;;;;;5049750;28;20018;-53
2023/07/07 13:08:02;;;;;;;8.02;4.25;;;25.40;56.70;;;;;;5051494;28;20024;-54
2023/07/07 13:10:33;;;;;;;9.27;3.67;;;25.30;54.40;;;;;;5049320;28;20320;-50
2023/07/07 13:13:29;;;;;;;5.05;3.53;;;25.50;56.30;;;;;;5039003;28;21946;-53
2023/07/07 13:15:56;;;;;;;6.35;3.83;;;25.40;55.70;;;;;;5032705;28;20118;-53
2023/07/07 13:18:23;;;;;;;6.68;3.55;;;25.30;56.30;;;;;;5058942;28;20060;-50
2023/07/07 13:20:51;;;;;;;6.72;3.35;;;25.30;57.00;;;;;;5073108;28;20434;-53